Time;durP1;ratioP1;P1;durP2;ratioP2;P2;SDS_P1;SDS_P2;PMS_P1;PMS_P2;Temp;Humidity;BMP_temperature;BMP_pressure;BME280_temperature;BME280_humidity;BME280_pressure;Samples;Min_cycle;Max_cycle;Signal;HPM_P1;HPM_P2
2022/12/13 00:03:11;;;;;;;18.45;8.75;;;5.10;86.90;;;;;;10753458;33;20520;-73
2022/12/13 00:09:16;;;;;;;9.20;6.82;;;5.10;86.80;;;;;;10740326;33;20334;-73
2022/12/13 00:15:18;;;;;;;10.82;7.78;;;5.00;87.20;;;;;;10752121;33;20029;-74
2022/12/13 00:21:24;;;;;;;9.52;6.20;;;5.00;87.10;;;;;;10741069;27;20075;-73
2022/12/13 00:27:26;;;;;;;11.40;6.95;;;4.90;86.80;;;;;;10752596;33;20339;-74
2022/12/13 00:33:28;;;;;;;9.50;7.00;;;4.80;86.90;;;;;;10738632;33;20036;-74
2022/12/13 00:39:30;;;;;;;10.13;8.23;;;4.90;87.20;;;;;;10736463;33;20064;-74
2022/12/13 00:45:32;;;;;;;8.73;6.40;;;4.90;87.40;;;;;;10763558;33;20028;-74
2022/12/13 00:51:34;;;;;;;11.95;7.30;;;5.00;87.20;;;;;;10749850;33;20029;-74
2022/12/13 00:57:37;;;;;;;10.63;7.50;;;4.90;86.90;;;;;;10751937;33;20402;-73
2022/12/13 01:03:39;;;;;;;10.27;7.75;;;5.10;87.00;;;;;;10751746;33;20017;-73
2022/12/13 01:09:43;;;;;;;9.55;6.80;;;5.10;86.90;;;;;;10751428;33;20444;-73
2022/12/13 01:15:46;;;;;;;7.75;4.60;;;5.10;87.30;;;;;;10751330;33;20067;-74
2022/12/13 01:21:52;;;;;;;8.07;4.60;;;5.00;87.50;;;;;;10751210;33;20070;-73
2022/12/13 01:27:54;;;;;;;6.82;4.57;;;5.00;87.30;;;;;;10750746;33;20017;-73
2022/12/13 01:33:56;;;;;;;8.32;5.95;;;5.10;87.00;;;;;;10751127;33;20021;-74
2022/12/13 01:39:58;;;;;;;9.00;5.65;;;5.00;86.90;;;;;;10750848;33;20021;-73
2022/12/13 01:46:00;;;;;;;6.25;4.15;;;5.00;86.90;;;;;;10750681;33;20407;-73
2022/12/13 01:52:07;;;;;;;10.13;6.80;;;5.00;87.00;;;;;;10750633;33;20025;-74
2022/12/13 01:58:11;;;;;;;6.97;4.55;;;5.00;87.10;;;;;;10750485;33;20025;-73
2022/12/13 02:04:39;;;;;;;8.35;5.85;;;5.10;86.90;;;;;;10746694;33;20055;-73
2022/12/13 02:10:43;;;;;;;8.02;4.12;;;5.10;87.10;;;;;;10736661;33;20032;-73
2022/12/13 02:17:14;;;;;;;9.98;4.47;;;5.10;87.20;;;;;;10750163;33;20020;-73
2022/12/13 02:23:37;;;;;;;5.62;3.65;;;5.00;87.10;;;;;;10748026;33;20051;-73
2022/12/13 02:29:48;;;;;;;9.02;5.60;;;5.00;87.00;;;;;;10749804;33;20078;-74
2022/12/13 02:35:59;;;;;;;8.45;5.68;;;5.00;86.80;;;;;;10750075;33;20054;-74
2022/12/13 02:42:11;;;;;;;6.78;4.28;;;5.00;86.70;;;;;;10755821;33;20056;-73
2022/12/13 02:48:20;;;;;;;8.23;5.25;;;5.00;86.60;;;;;;10755712;33;20021;-73
2022/12/13 02:54:23;;;;;;;6.73;4.27;;;5.00;86.60;;;;;;10742513;33;20017;-74
2022/12/13 03:01:12;;;;;;;6.37;3.35;;;5.00;86.80;;;;;;10755268;33;20055;-74
2022/12/13 03:07:28;;;;;;;7.05;4.80;;;4.90;86.60;;;;;;10830094;32;20323;-74
2022/12/13 03:13:47;;;;;;;7.43;5.05;;;4.90;86.80;;;;;;10830264;32;20027;-74
2022/12/13 03:19:52;;;;;;;5.57;3.97;;;4.90;86.50;;;;;;10825760;32;20036;-74
2022/12/13 03:26:21;;;;;;;7.30;5.07;;;5.10;86.80;;;;;;10829616;32;20128;-74
2022/12/13 03:32:23;;;;;;;7.82;5.25;;;5.20;87.00;;;;;;10829337;32;20020;-73
2022/12/13 03:38:25;;;;;;;6.35;4.45;;;5.40;86.50;;;;;;10819891;32;20032;-73
2022/12/13 03:44:27;;;;;;;6.93;4.40;;;5.60;86.20;;;;;;10754164;33;20425;-73
2022/12/13 03:50:29;;;;;;;8.38;5.45;;;5.70;85.80;;;;;;10753846;33;20051;-73
2022/12/13 03:56:31;;;;;;;8.07;5.03;;;5.80;86.30;;;;;;10753552;33;20061;-73
2022/12/13 04:02:33;;;;;;;6.30;4.37;;;5.90;86.40;;;;;;10753724;33;20044;-73
2022/12/13 04:08:37;;;;;;;7.95;5.62;;;5.80;85.70;;;;;;10753343;33;20044;-74
2022/12/13 04:14:38;;;;;;;8.95;5.82;;;5.80;85.70;;;;;;10753018;33;20101;-74
2022/12/13 04:20:40;;;;;;;6.47;4.28;;;5.90;85.80;;;;;;10752751;33;20334;-74
2022/12/13 04:26:43;;;;;;;7.80;5.45;;;5.80;85.60;;;;;;10739835;33;20021;-74
2022/12/13 04:32:45;;;;;;;6.28;4.53;;;5.80;85.40;;;;;;10751825;33;20025;-74
2022/12/13 04:38:47;;;;;;;7.15;4.47;;;5.90;85.20;;;;;;10751634;33;20036;-74
2022/12/13 04:44:49;;;;;;;5.82;3.58;;;5.90;85.10;;;;;;10752319;33;20025;-73
2022/12/13 04:50:50;;;;;;;6.05;3.75;;;5.90;85.00;;;;;;10752102;33;20030;-74
2022/12/13 04:56:52;;;;;;;4.62;2.97;;;5.80;84.80;;;;;;10752224;33;20047;-74
2022/12/13 05:02:54;;;;;;;6.97;4.30;;;5.90;84.70;;;;;;10751525;33;20051;-74
2022/12/13 05:08:56;;;;;;;7.57;4.75;;;5.90;85.00;;;;;;10752077;33;20055;-73
2022/12/13 05:14:58;;;;;;;6.90;3.95;;;6.10;85.20;;;;;;10751837;33;20331;-73
2022/12/13 05:21:05;;;;;;;7.60;4.43;;;6.10;85.10;;;;;;10748517;33;20029;-74
2022/12/13 05:27:08;;;;;;;7.28;5.25;;;6.20;84.80;;;;;;10751457;33;20028;-74
2022/12/13 05:33:11;;;;;;;7.82;4.40;;;6.10;84.50;;;;;;10750360;33;20319;-74
2022/12/13 05:39:12;;;;;;;8.85;4.75;;;6.20;84.20;;;;;;10737107;33;20358;-73
2022/12/13 05:45:16;;;;;;;7.20;5.10;;;6.20;83.80;;;;;;10751162;33;20055;-73
2022/12/13 05:51:19;;;;;;;8.63;5.55;;;6.30;84.40;;;;;;10750863;33;20028;-74
2022/12/13 05:57:22;;;;;;;7.40;4.37;;;6.20;85.20;;;;;;10750933;33;20495;-74
2022/12/13 06:03:25;;;;;;;6.78;3.90;;;6.10;85.50;;;;;;10750719;33;20335;-74
2022/12/13 06:09:27;;;;;;;9.07;4.28;;;5.90;85.60;;;;;;10750371;33;20312;-74
2022/12/13 06:15:31;;;;;;;5.78;3.40;;;5.70;85.70;;;;;;10755440;33;20063;-74
2022/12/13 06:21:34;;;;;;;4.37;2.80;;;5.60;86.00;;;;;;10756395;33;20051;-74
2022/12/13 06:27:36;;;;;;;6.87;4.22;;;5.70;86.10;;;;;;10756325;33;20051;-74
2022/12/13 06:33:38;;;;;;;6.10;4.15;;;5.90;86.40;;;;;;10756203;33;20017;-74
2022/12/13 06:39:40;;;;;;;8.20;4.28;;;6.00;86.50;;;;;;10753190;33;20346;-74
2022/12/13 06:45:42;;;;;;;5.85;3.45;;;5.90;86.60;;;;;;10755815;33;20047;-74
2022/12/13 06:51:45;;;;;;;7.20;4.40;;;5.90;86.90;;;;;;10755640;33;20021;-74
2022/12/13 06:57:47;;;;;;;7.87;4.32;;;6.00;86.40;;;;;;10742392;33;20033;-74
2022/12/13 07:03:49;;;;;;;6.35;3.90;;;6.10;86.20;;;;;;10755399;32;20044;-74
2022/12/13 07:09:52;;;;;;;6.22;4.07;;;6.10;86.40;;;;;;10754247;32;20051;-74
2022/12/13 07:15:54;;;;;;;5.37;3.25;;;6.20;86.20;;;;;;10760759;32;20048;-74
2022/12/13 07:21:56;;;;;;;4.75;2.92;;;6.20;86.10;;;;;;10749736;33;20072;-75
2022/12/13 07:28:00;;;;;;;6.18;3.30;;;6.20;86.00;;;;;;10754265;33;20355;-74
2022/12/13 07:34:06;;;;;;;4.10;2.40;;;6.20;86.10;;;;;;10754319;33;20063;-75
2022/12/13 07:40:14;;;;;;;4.43;3.45;;;6.20;86.60;;;;;;10740947;33;20067;-74
2022/12/13 07:46:16;;;;;;;5.72;3.50;;;6.10;86.50;;;;;;10753984;33;20048;-74
2022/12/13 07:52:18;;;;;;;5.00;3.12;;;6.10;86.50;;;;;;10753835;33;20016;-74
2022/12/13 07:58:21;;;;;;;4.90;2.53;;;6.20;86.70;;;;;;10748129;33;20064;-75
2022/12/13 08:04:24;;;;;;;5.40;3.22;;;6.30;86.60;;;;;;10745182;33;20063;-74
2022/12/13 08:10:27;;;;;;;4.95;2.92;;;6.40;86.80;;;;;;10738094;32;20036;-74
2022/12/13 08:16:51;;;;;;;5.55;3.65;;;6.30;86.50;;;;;;10749168;33;20334;-74
2022/12/13 08:22:56;;;;;;;6.35;3.75;;;6.40;86.80;;;;;;10375237;27;12070901;-74
2022/12/13 08:28:58;;;;;;;3.45;2.28;;;6.20;85.50;;;;;;10713271;33;20056;-74
2022/12/13 08:35:00;;;;;;;4.45;2.40;;;6.20;86.50;;;;;;10711330;33;20025;-74
2022/12/13 08:41:11;;;;;;;7.60;3.58;;;6.00;85.80;;;;;;10712851;33;20064;-74
2022/12/13 08:47:13;;;;;;;5.90;2.22;;;6.10;86.80;;;;;;10722308;33;20037;-74
2022/12/13 08:53:18;;;;;;;4.30;2.53;;;6.30;86.80;;;;;;10752019;33;20039;-74
2022/12/13 08:59:24;;;;;;;6.32;2.97;;;6.60;86.60;;;;;;10747877;33;20051;-73
2022/12/13 09:05:26;;;;;;;5.47;2.80;;;6.70;86.30;;;;;;10751633;33;20055;-74
2022/12/13 09:11:28;;;;;;;4.57;2.00;;;6.80;86.70;;;;;;10751589;33;20044;-74
2022/12/13 09:17:32;;;;;;;4.22;2.28;;;6.90;86.50;;;;;;10751620;33;20020;-74
2022/12/13 09:23:34;;;;;;;4.90;2.33;;;6.80;86.30;;;;;;10751251;33;20025;-74
2022/12/13 09:29:38;;;;;;;5.60;3.17;;;7.10;86.60;;;;;;10751434;33;20440;-74
2022/12/13 09:35:40;;;;;;;5.25;3.47;;;7.20;86.30;;;;;;10751135;33;20346;-78
2022/12/13 09:41:48;;;;;;;5.95;2.70;;;7.00;86.50;;;;;;10749946;33;20052;-77
2022/12/13 09:47:52;;;;;;;6.10;2.85;;;6.80;86.80;;;;;;10754415;33;20028;-77
2022/12/13 09:53:54;;;;;;;3.58;2.10;;;7.00;87.10;;;;;;10754527;33;20029;-78
2022/12/13 09:59:57;;;;;;;5.80;3.33;;;7.30;86.70;;;;;;10754407;33;20052;-78
2022/12/13 10:06:14;;;;;;;5.53;3.30;;;7.30;86.60;;;;;;10756697;33;20055;-78
2022/12/13 10:12:17;;;;;;;6.45;3.58;;;7.40;86.90;;;;;;10756932;33;20425;-77
2022/12/13 10:18:30;;;;;;;7.25;4.05;;;7.50;86.90;;;;;;10756287;33;20033;-77
2022/12/13 10:24:55;;;;;;;3.47;2.15;;;7.50;86.40;;;;;;10756202;33;20024;-77
2022/12/13 10:30:59;;;;;;;5.82;4.30;;;7.40;86.90;;;;;;10756339;33;20051;-78
2022/12/13 10:37:23;;;;;;;6.57;3.72;;;7.60;87.50;;;;;;10755982;33;20040;-77
2022/12/13 10:43:26;;;;;;;5.40;2.92;;;7.50;87.30;;;;;;10756054;33;20043;-78
2022/12/13 10:49:45;;;;;;;6.20;2.78;;;7.50;87.30;;;;;;10755637;33;20020;-78
2022/12/13 10:55:54;;;;;;;3.67;2.00;;;7.20;86.90;;;;;;10756016;33;20017;-77
2022/12/13 11:01:57;;;;;;;6.97;3.47;;;7.30;87.70;;;;;;10750699;33;20050;-77
2022/12/13 11:08:25;;;;;;;5.68;2.83;;;7.40;87.40;;;;;;10755144;33;20129;-77
2022/12/13 11:14:32;;;;;;;7.10;3.15;;;7.40;87.30;;;;;;10754918;33;20051;-77
2022/12/13 11:20:53;;;;;;;4.43;2.42;;;7.60;87.50;;;;;;10754747;33;20402;-77
2022/12/13 11:27:22;;;;;;;6.65;3.75;;;7.70;87.10;;;;;;10754749;33;20043;-77
2022/12/13 11:33:40;;;;;;;6.97;4.28;;;7.70;87.30;;;;;;10789647;33;20359;-78
2022/12/13 11:39:53;;;;;;;5.32;3.15;;;7.70;87.60;;;;;;10823796;32;20075;-78
2022/12/13 11:46:00;;;;;;;5.87;3.10;;;7.70;87.00;;;;;;10828833;32;20019;-78
2022/12/13 11:52:34;;;;;;;3.97;2.37;;;7.40;87.70;;;;;;10825519;32;20052;-77
2022/12/13 11:58:51;;;;;;;5.05;2.83;;;7.50;87.80;;;;;;10828798;32;20409;-77
2022/12/13 12:04:55;;;;;;;7.55;3.62;;;7.60;87.70;;;;;;10825475;32;20044;-78
2022/12/13 12:11:15;;;;;;;6.20;3.25;;;7.70;87.40;;;;;;10760951;32;20371;-78
2022/12/13 12:17:22;;;;;;;5.00;3.45;;;7.80;87.30;;;;;;10740162;33;20021;-78
2022/12/13 12:23:43;;;;;;;4.28;2.67;;;7.90;87.00;;;;;;10752933;33;20040;-78
2022/12/13 12:30:13;;;;;;;4.90;3.05;;;7.80;87.20;;;;;;10750256;33;20043;-77
2022/12/13 12:36:29;;;;;;;6.35;3.78;;;7.80;87.20;;;;;;10753847;33;20311;-78
2022/12/13 12:42:46;;;;;;;3.78;2.72;;;7.60;87.20;;;;;;10752512;33;20008;-77
2022/12/13 12:49:04;;;;;;;8.00;2.62;;;7.60;87.40;;;;;;10748911;33;20028;-77
2022/12/13 12:55:24;;;;;;;4.45;3.10;;;7.80;87.70;;;;;;10752130;33;20013;-77
2022/12/13 13:01:56;;;;;;;5.57;2.80;;;8.10;87.80;;;;;;10738871;33;20028;-77
2022/12/13 13:08:27;;;;;;;5.03;3.00;;;8.10;87.40;;;;;;10738927;33;20020;-78
2022/12/13 13:14:35;;;;;;;6.93;3.53;;;7.90;86.80;;;;;;10752209;33;20022;-78
2022/12/13 13:20:37;;;;;;;4.65;3.05;;;7.80;86.50;;;;;;10750682;33;20024;-77
2022/12/13 13:26:46;;;;;;;5.30;3.10;;;7.70;86.90;;;;;;10751349;33;20020;-77
2022/12/13 13:32:54;;;;;;;9.30;3.05;;;7.90;87.50;;;;;;10751096;33;20043;-78
2022/12/13 13:38:57;;;;;;;6.75;3.97;;;8.20;87.10;;;;;;10749589;33;20033;-77
2022/12/13 13:45:16;;;;;;;6.45;3.03;;;8.20;86.90;;;;;;10750611;33;20021;-78
2022/12/13 13:51:55;;;;;;;5.87;3.60;;;8.20;87.10;;;;;;10750680;33;20047;-77
2022/12/13 13:58:45;;;;;;;3.97;2.47;;;8.40;87.00;;;;;;10737680;33;20032;-77
2022/12/13 14:05:06;;;;;;;4.80;2.97;;;8.60;86.60;;;;;;10785359;32;20032;-77
2022/12/13 14:11:59;;;;;;;6.80;3.85;;;8.60;86.60;;;;;;10788322;32;20530;-77
2022/12/13 14:18:38;;;;;;;7.62;4.25;;;8.70;86.60;;;;;;10716043;33;20037;-77
2022/12/13 14:24:46;;;;;;;5.53;3.57;;;8.60;86.20;;;;;;10714089;33;20455;-77
2022/12/13 14:30:48;;;;;;;5.50;3.45;;;8.40;85.90;;;;;;10714868;33;20348;-77
2022/12/13 14:36:55;;;;;;;8.85;4.22;;;8.20;86.00;;;;;;10726677;33;20044;-78
2022/12/13 14:42:58;;;;;;;6.72;3.80;;;8.40;86.50;;;;;;10780522;32;20347;-77
2022/12/13 14:49:00;;;;;;;7.45;4.50;;;8.50;86.40;;;;;;10792600;32;20055;-77
2022/12/13 14:55:03;;;;;;;9.43;5.07;;;8.40;86.20;;;;;;10728457;33;20484;-78
2022/12/13 15:01:23;;;;;;;8.52;5.37;;;8.30;86.00;;;;;;10717705;33;20017;-77
2022/12/13 15:07:31;;;;;;;10.30;4.75;;;8.20;85.70;;;;;;10732597;32;20315;-77
2022/12/13 15:13:39;;;;;;;10.05;4.87;;;8.20;86.00;;;;;;10753405;32;20094;-77
2022/12/13 15:19:42;;;;;;;8.50;4.57;;;8.30;86.20;;;;;;10740191;32;20052;-77
2022/12/13 15:26:24;;;;;;;10.35;6.32;;;8.20;85.90;;;;;;10755484;32;20032;-77
2022/12/13 15:32:27;;;;;;;7.22;4.80;;;7.90;86.10;;;;;;10754490;33;20055;-77
2022/12/13 15:38:29;;;;;;;16.98;9.32;;;7.80;85.80;;;;;;10754376;33;20334;-77
2022/12/13 15:44:39;;;;;;;15.25;9.35;;;7.60;86.10;;;;;;10753942;33;20012;-77
2022/12/13 15:50:41;;;;;;;13.80;10.43;;;7.70;86.00;;;;;;10755129;33;20063;-77
2022/12/13 15:57:03;;;;;;;17.70;12.35;;;7.70;85.90;;;;;;10752512;33;20066;-77
2022/12/13 16:03:16;;;;;;;14.55;8.82;;;7.70;85.40;;;;;;10753573;33;20028;-77
2022/12/13 16:09:24;;;;;;;10.98;6.78;;;7.70;85.10;;;;;;10753202;33;20016;-77
2022/12/13 16:15:31;;;;;;;13.38;9.43;;;7.30;85.50;;;;;;10753194;33;20319;-77
2022/12/13 16:21:33;;;;;;;18.20;12.45;;;7.30;86.10;;;;;;10748092;27;20068;-77
2022/12/13 16:27:36;;;;;;;20.90;12.07;;;7.50;85.70;;;;;;10715390;33;20343;-77
2022/12/13 16:33:38;;;;;;;18.87;10.93;;;7.60;85.50;;;;;;10716538;33;20017;-77
2022/12/13 16:39:40;;;;;;;11.55;8.70;;;7.70;85.20;;;;;;10716263;33;20029;-77
2022/12/13 16:45:46;;;;;;;10.65;7.60;;;7.70;85.10;;;;;;10716093;33;20300;-77
2022/12/13 16:51:48;;;;;;;11.48;8.18;;;7.70;85.10;;;;;;10715960;33;20354;-77
2022/12/13 16:57:59;;;;;;;11.00;7.15;;;7.60;85.10;;;;;;10715166;33;20024;-77
2022/12/13 17:04:01;;;;;;;10.32;7.87;;;7.70;85.10;;;;;;10761200;32;20051;-77
2022/12/13 17:10:04;;;;;;;11.40;6.47;;;7.70;85.00;;;;;;10682319;33;20072;-77
2022/12/13 17:16:06;;;;;;;12.60;8.13;;;7.70;84.90;;;;;;10723244;32;20044;-77
2022/12/13 17:22:08;;;;;;;13.52;8.00;;;7.60;84.90;;;;;;10764452;32;20063;-77
2022/12/13 17:28:10;;;;;;;16.08;10.45;;;7.50;84.90;;;;;;10714949;33;20029;-77
2022/12/13 17:34:12;;;;;;;11.75;6.90;;;7.60;85.20;;;;;;10715008;33;20064;-77
2022/12/13 17:40:15;;;;;;;12.65;8.05;;;7.50;85.00;;;;;;10764450;32;20032;-77
2022/12/13 17:46:18;;;;;;;19.33;11.43;;;7.40;85.20;;;;;;10714535;33;20029;-77
2022/12/13 17:52:19;;;;;;;15.38;9.13;;;7.50;85.50;;;;;;10710293;33;20029;-77
2022/12/13 17:58:22;;;;;;;13.05;9.20;;;7.60;85.50;;;;;;10714210;33;20029;-77
2022/12/13 18:04:24;;;;;;;13.52;9.25;;;7.50;85.70;;;;;;10714214;33;20099;-77
2022/12/13 18:10:26;;;;;;;14.43;10.45;;;7.50;85.80;;;;;;10716107;33;20335;-74
2022/12/13 18:16:28;;;;;;;13.60;9.75;;;7.50;85.90;;;;;;10770355;32;20055;-74
2022/12/13 18:22:30;;;;;;;12.25;8.68;;;7.50;85.80;;;;;;10720122;33;20075;-74
2022/12/13 18:28:33;;;;;;;11.93;8.45;;;7.40;85.50;;;;;;10720093;33;20021;-74
2022/12/13 18:34:35;;;;;;;12.55;7.65;;;7.30;85.40;;;;;;10717341;33;20409;-74
2022/12/13 18:40:37;;;;;;;11.93;7.70;;;7.20;85.40;;;;;;10769221;32;20075;-74
2022/12/13 18:46:39;;;;;;;12.40;8.38;;;7.20;85.40;;;;;;10719460;33;20021;-74
2022/12/13 18:52:42;;;;;;;14.48;9.98;;;7.30;85.60;;;;;;10719447;33;20028;-74
2022/12/13 18:58:46;;;;;;;14.87;9.30;;;7.40;85.90;;;;;;10719205;33;20374;-74
2022/12/13 19:04:49;;;;;;;9.60;6.75;;;7.40;86.10;;;;;;10718684;33;20321;-74
2022/12/13 19:10:53;;;;;;;12.82;8.10;;;7.40;86.30;;;;;;10717293;33;20367;-74
2022/12/13 19:17:17;;;;;;;13.98;8.70;;;7.20;86.30;;;;;;10718533;33;20063;-74
2022/12/13 19:23:19;;;;;;;10.00;7.22;;;7.20;86.70;;;;;;10768031;32;20379;-74
2022/12/13 19:29:21;;;;;;;11.40;8.27;;;7.20;87.10;;;;;;10768331;32;20032;-74
2022/12/13 19:35:24;;;;;;;11.43;8.40;;;7.20;87.00;;;;;;10718230;33;20060;-74
2022/12/13 19:41:27;;;;;;;16.20;8.90;;;7.20;87.00;;;;;;10715077;33;20028;-74
2022/12/13 19:47:29;;;;;;;11.38;7.32;;;7.20;87.20;;;;;;10763665;32;20024;-74
2022/12/13 19:53:31;;;;;;;10.93;7.80;;;7.20;87.30;;;;;;10717663;33;20029;-74
2022/12/13 19:59:40;;;;;;;12.18;8.82;;;7.20;87.30;;;;;;10717446;33;20083;-74
2022/12/13 20:05:44;;;;;;;15.25;9.30;;;7.20;87.10;;;;;;10722079;32;20343;-74
2022/12/13 20:11:45;;;;;;;14.70;9.82;;;7.20;87.00;;;;;;10792038;32;20342;-74
2022/12/13 20:17:47;;;;;;;17.45;11.82;;;7.20;86.70;;;;;;10715336;33;20340;-74
2022/12/13 20:23:49;;;;;;;14.57;8.73;;;7.20;86.40;;;;;;10766576;32;20044;-74
2022/12/13 20:29:52;;;;;;;13.00;8.27;;;7.20;86.30;;;;;;10715762;33;20048;-74
2022/12/13 20:35:54;;;;;;;10.20;7.68;;;7.10;86.20;;;;;;10716484;33;20090;-74
2022/12/13 20:41:56;;;;;;;14.23;8.50;;;7.10;86.10;;;;;;10716483;33;20025;-74
2022/12/13 20:47:58;;;;;;;10.93;8.15;;;7.00;86.10;;;;;;10716170;33;20048;-74
2022/12/13 20:54:01;;;;;;;11.80;8.85;;;7.00;86.00;;;;;;10715945;33;20033;-74
2022/12/13 21:00:05;;;;;;;12.37;9.13;;;6.90;86.00;;;;;;10712644;33;20402;-74
2022/12/13 21:06:09;;;;;;;15.63;12.07;;;6.90;86.00;;;;;;10763133;32;20025;-74
2022/12/13 21:12:12;;;;;;;13.80;10.90;;;6.90;85.90;;;;;;10715523;33;20029;-74
2022/12/13 21:18:14;;;;;;;15.82;11.50;;;6.90;85.80;;;;;;10715502;33;20082;-74
2022/12/13 21:24:18;;;;;;;11.40;8.27;;;6.90;85.60;;;;;;10715173;33;20020;-74
2022/12/13 21:30:21;;;;;;;12.45;8.65;;;6.90;85.50;;;;;;10715072;33;20032;-74
2022/12/13 21:36:26;;;;;;;13.13;8.95;;;6.90;85.40;;;;;;10714897;33;20029;-74
2022/12/13 21:42:29;;;;;;;17.17;13.43;;;6.80;85.60;;;;;;10714424;33;20403;-74
2022/12/13 21:48:32;;;;;;;15.50;10.30;;;6.90;85.80;;;;;;10711049;33;20099;-74
2022/12/13 21:54:34;;;;;;;19.42;14.48;;;6.90;85.80;;;;;;10714536;33;20055;-74
2022/12/13 22:00:36;;;;;;;16.17;12.18;;;6.90;85.80;;;;;;10714431;33;20429;-74
2022/12/13 22:06:39;;;;;;;16.12;12.15;;;6.90;85.70;;;;;;10764152;32;20430;-74
2022/12/13 22:12:41;;;;;;;14.70;10.25;;;7.00;85.70;;;;;;10710669;33;20457;-74
2022/12/13 22:18:44;;;;;;;11.15;8.10;;;6.90;85.60;;;;;;10709972;33;20067;-74
2022/12/13 22:24:46;;;;;;;11.63;9.40;;;6.70;85.60;;;;;;10713931;33;20017;-74
2022/12/13 22:30:54;;;;;;;11.70;8.02;;;6.50;86.10;;;;;;10711306;33;20025;-74
2022/12/13 22:36:57;;;;;;;13.60;8.77;;;6.40;86.10;;;;;;10713719;33;20040;-74
2022/12/13 22:42:59;;;;;;;12.32;8.80;;;6.10;86.40;;;;;;10709459;33;20022;-74
2022/12/13 22:49:01;;;;;;;15.57;10.50;;;6.30;86.70;;;;;;10759121;32;20017;-74
2022/12/13 22:55:04;;;;;;;12.35;9.30;;;6.40;86.30;;;;;;10715993;33;20044;-74
2022/12/13 23:01:07;;;;;;;12.27;8.98;;;6.40;86.20;;;;;;10719326;33;20026;-74
2022/12/13 23:07:10;;;;;;;11.80;8.30;;;6.40;86.30;;;;;;10719053;33;20055;-74
2022/12/13 23:13:13;;;;;;;12.52;8.88;;;6.40;86.00;;;;;;10717153;33;20024;-74
2022/12/13 23:19:15;;;;;;;12.50;9.88;;;6.10;86.20;;;;;;10714600;33;20437;-74
2022/12/13 23:25:17;;;;;;;10.35;7.87;;;5.90;86.50;;;;;;10718492;33;20025;-74
2022/12/13 23:31:21;;;;;;;10.52;6.93;;;6.00;86.60;;;;;;10718482;33;20021;-74
2022/12/13 23:37:23;;;;;;;10.27;6.20;;;5.90;86.70;;;;;;10718125;33;20032;-74
2022/12/13 23:43:49;;;;;;;14.25;10.77;;;5.90;86.60;;;;;;10765838;32;20410;-74
2022/12/13 23:49:51;;;;;;;11.27;7.45;;;5.80;86.70;;;;;;10717880;33;20434;-74
2022/12/13 23:55:53;;;;;;;11.35;8.23;;;5.70;86.60;;;;;;10717711;33;20018;-74
